Time;durP1;ratioP1;P1;durP2;ratioP2;P2;SDS_P1;SDS_P2;PMS_P1;PMS_P2;Temp;Humidity;BMP_temperature;BMP_pressure;BME280_temperature;BME280_humidity;BME280_pressure;Samples;Min_cycle;Max_cycle;Signal;HPM_P1;HPM_P2
2023/01/14 00:01:51;;;;;;;;;;;;;;;9.40;70.41;101403.66;5007090;28;19949;-83
2023/01/14 00:04:17;;;;;;;;;;;;;;;9.40;70.57;101400.97;5010815;28;19931;-82
2023/01/14 00:06:42;;;;;;;;;;;;;;;9.39;70.62;101401.19;5014084;28;20017;-81
2023/01/14 00:09:10;;;;;;;;;;;;;;;9.38;70.25;101399.53;5011662;28;20329;-82
2023/01/14 00:11:47;;;;;;;;;;;;;;;9.36;70.37;101404.31;4993001;28;19917;-83
2023/01/14 00:14:15;;;;;;;;;;;;;;;9.34;70.41;101409.91;4993222;28;19922;-83
2023/01/14 00:16:41;;;;;;;;;;;;;;;9.34;70.44;101398.31;5010450;28;20377;-82
2023/01/14 00:19:07;;;;;;;;;;;;;;;9.34;70.43;101403.72;4999190;28;19926;-81
2023/01/14 00:21:32;;;;;;;;;;;;;;;9.34;70.53;101406.41;4996292;28;19926;-81
2023/01/14 00:23:58;;;;;;;;;;;;;;;9.34;70.27;101403.72;5005658;28;19929;-81
2023/01/14 00:26:25;;;;;;;;;;;;;;;9.34;70.46;101404.53;5012218;28;20380;-81
2023/01/14 00:28:50;;;;;;;;;;;;;;;9.34;70.44;101403.72;5005650;28;20068;-81
2023/01/14 00:31:17;;;;;;;;;;;;;;;9.33;70.43;101400.19;5005627;28;20417;-82
2023/01/14 00:33:42;;;;;;;;;;;;;;;9.32;70.25;101404.75;5005305;28;19923;-83
2023/01/14 00:36:09;;;;;;;;;;;;;;;9.32;70.44;101409.31;5010749;28;19932;-81
2023/01/14 00:38:35;;;;;;;;;;;;;;;9.31;70.39;101413.88;5006214;28;19921;-81
2023/01/14 00:41:14;;;;;;;;;;;;;;;9.31;70.60;101407.66;4998613;28;20370;-81
2023/01/14 00:43:40;;;;;;;;;;;;;;;9.29;70.48;101409.75;5006115;28;19925;-81
2023/01/14 00:46:07;;;;;;;;;;;;;;;9.29;70.55;101410.56;5001839;28;19927;-81
2023/01/14 00:48:33;;;;;;;;;;;;;;;9.28;70.39;101402.72;5012461;28;20297;-77
2023/01/14 00:50:58;;;;;;;;;;;;;;;9.27;70.47;101399.19;5013302;28;19926;-82
2023/01/14 00:53:23;;;;;;;;;;;;;;;9.27;70.48;101406.44;5010674;28;19929;-80
2023/01/14 00:55:49;;;;;;;;;;;;;;;9.26;70.60;101402.09;5010422;28;20393;-82
2023/01/14 00:58:14;;;;;;;;;;;;;;;9.25;70.21;101395.88;5014922;28;20008;-81
2023/01/14 01:00:39;;;;;;;;;;;;;;;9.25;70.38;101395.06;5005417;28;20271;-81
2023/01/14 01:03:04;;;;;;;;;;;;;;;9.23;70.59;101397.16;5011314;28;19964;-81
2023/01/14 01:05:34;;;;;;;;;;;;;;;9.24;70.22;101401.47;5009860;28;19921;-82
2023/01/14 01:07:59;;;;;;;;;;;;;;;9.23;70.41;101410.63;5009408;28;19921;-81
2023/01/14 01:10:26;;;;;;;;;;;;;;;9.23;70.50;101418.72;5014655;28;19952;-81
2023/01/14 01:12:51;;;;;;;;;;;;;;;9.21;70.49;101410.84;5009128;28;19944;-81
2023/01/14 01:15:16;;;;;;;;;;;;;;;9.22;70.21;101411.66;5006950;28;20281;-80
2023/01/14 01:17:42;;;;;;;;;;;;;;;9.21;70.39;101412.72;5008940;28;19932;-82
2023/01/14 01:20:08;;;;;;;;;;;;;;;9.20;70.47;101414.59;4995586;28;19918;-82
2023/01/14 01:22:33;;;;;;;;;;;;;;;9.20;70.42;101416.47;5003984;28;19925;-82
2023/01/14 01:24:58;;;;;;;;;;;;;;;9.20;70.36;101411.06;5003451;28;19930;-82
2023/01/14 01:27:24;;;;;;;;;;;;;;;9.19;70.18;101404.81;5004319;28;19926;-79
2023/01/14 01:29:49;;;;;;;;;;;;;;;9.18;70.21;101400.50;5010585;28;19932;-83
2023/01/14 01:32:15;;;;;;;;;;;;;;;9.17;70.24;101393.47;5012101;28;20437;-80
2023/01/14 01:34:40;;;;;;;;;;;;;;;9.17;70.27;101406.09;5006691;28;19933;-81
2023/01/14 01:37:05;;;;;;;;;;;;;;;9.17;70.14;101401.56;4999403;28;19952;-81
2023/01/14 01:39:30;;;;;;;;;;;;;;;9.16;70.23;101401.75;5010884;28;19969;-82
2023/01/14 01:41:56;;;;;;;;;;;;;;;9.15;70.21;101405.47;5009386;28;19925;-80
2023/01/14 01:44:21;;;;;;;;;;;;;;;9.15;70.13;101400.09;4999501;28;19932;-82
2023/01/14 01:46:46;;;;;;;;;;;;;;;9.14;70.29;101393.88;5000820;28;19922;-81
2023/01/14 01:49:14;;;;;;;;;;;;;;;9.13;70.26;101399.50;5003329;28;19922;-78
2023/01/14 01:51:43;;;;;;;;;;;;;;;9.13;70.19;101404.88;5011508;28;20020;-77
2023/01/14 01:54:09;;;;;;;;;;;;;;;9.12;70.19;101404.03;5011079;28;20000;-80
2023/01/14 01:56:36;;;;;;;;;;;;;;;9.11;70.21;101407.78;5013209;28;20289;-81
2023/01/14 01:59:03;;;;;;;;;;;;;;;9.10;70.10;101401.56;5003360;28;19925;-81
2023/01/14 02:01:29;;;;;;;;;;;;;;;9.08;70.17;101403.66;4999665;28;19940;-81
2023/01/14 02:03:54;;;;;;;;;;;;;;;9.08;70.05;101392.88;5009477;28;19921;-81
2023/01/14 02:06:19;;;;;;;;;;;;;;;9.07;70.35;101385.84;5003010;28;19949;-80
2023/01/14 02:08:47;;;;;;;;;;;;;;;9.07;70.04;101382.31;5007063;28;19968;-79
2023/01/14 02:11:21;;;;;;;;;;;;;;;9.06;70.02;101369.88;4998080;28;20016;-80
2023/01/14 02:13:58;;;;;;;;;;;;;;;9.05;70.16;101362.84;5004873;28;20008;-80
2023/01/14 02:16:32;;;;;;;;;;;;;;;9.05;70.13;101350.19;5002050;28;19929;-80
2023/01/14 02:19:00;;;;;;;;;;;;;;;9.04;70.19;101335.06;4986513;28;19930;-78
2023/01/14 02:21:28;;;;;;;;;;;;;;;9.03;70.22;101338.81;4988300;28;19968;-80
2023/01/14 02:23:54;;;;;;;;;;;;;;;9.03;70.22;101335.28;4989139;28;20381;-81
2023/01/14 02:26:19;;;;;;;;;;;;;;;9.01;70.01;101318.50;4989671;28;19992;-78
2023/01/14 02:28:58;;;;;;;;;;;;;;;9.00;70.01;101320.38;4992038;28;19928;-81
2023/01/14 02:31:29;;;;;;;;;;;;;;;9.00;70.04;101303.41;5002255;28;19941;-81
2023/01/14 02:34:03;;;;;;;;;;;;;;;8.99;70.20;101299.84;5011064;28;19973;-81
2023/01/14 02:36:28;;;;;;;;;;;;;;;8.98;70.06;101300.09;5010993;28;20385;-81
2023/01/14 02:38:53;;;;;;;;;;;;;;;8.97;70.18;101306.50;5010280;28;19925;-81
2023/01/14 02:41:18;;;;;;;;;;;;;;;8.96;70.04;101311.06;5006037;28;20361;-81
2023/01/14 02:46:33;;;;;;;;;;;;;;;8.95;70.13;101308.63;5010734;28;19928;-81
2023/01/14 02:49:01;;;;;;;;;;;;;;;8.92;70.26;101290.16;4999425;28;19953;-80
2023/01/14 02:51:26;;;;;;;;;;;;;;;8.92;70.10;101290.16;5000827;28;20400;-81
2023/01/14 02:53:51;;;;;;;;;;;;;;;8.92;70.10;101290.16;5005345;28;20371;-81
2023/01/14 02:56:16;;;;;;;;;;;;;;;8.91;70.18;101294.75;5010165;28;20165;-81
2023/01/14 02:58:56;;;;;;;;;;;;;;;8.90;70.12;101293.09;5005719;28;19921;-80
2023/01/14 03:01:24;;;;;;;;;;;;;;;8.88;70.23;101285.22;5004672;28;19921;-80
2023/01/14 03:04:01;;;;;;;;;;;;;;;8.88;69.99;101273.63;5003751;28;19972;-81
2023/01/14 03:06:31;;;;;;;;;;;;;;;8.87;70.10;101266.59;5010171;28;19929;-81
2023/01/14 03:09:15;;;;;;;;;;;;;;;8.85;70.06;101261.41;5019332;28;19999;-81
2023/01/14 03:11:45;;;;;;;;;;;;;;;8.85;70.10;101253.34;5008086;28;19922;-79
2023/01/14 03:14:18;;;;;;;;;;;;;;;8.85;69.94;101257.91;5007085;28;20009;-81
2023/01/14 03:16:54;;;;;;;;;;;;;;;8.83;70.10;101247.34;5023033;28;19931;-81
2023/01/14 03:19:25;;;;;;;;;;;;;;;8.82;70.22;101247.53;5005653;28;20378;-81
2023/01/14 03:21:53;;;;;;;;;;;;;;;8.81;70.01;101246.72;5009737;28;19996;-79
2023/01/14 03:24:24;;;;;;;;;;;;;;;8.81;70.13;101235.13;5003528;28;19955;-80
2023/01/14 03:26:51;;;;;;;;;;;;;;;8.80;70.07;101233.50;4994841;28;19922;-80
2023/01/14 03:29:24;;;;;;;;;;;;;;;8.79;70.14;101227.25;5002272;28;20017;-81
2023/01/14 03:31:53;;;;;;;;;;;;;;;8.78;70.32;101232.88;4994771;28;19972;-79
2023/01/14 03:34:26;;;;;;;;;;;;;;;8.77;70.00;101244.69;5005087;28;20388;-81
2023/01/14 03:36:52;;;;;;;;;;;;;;;8.77;70.14;101244.69;5008883;28;19921;-80
2023/01/14 03:39:20;;;;;;;;;;;;;;;8.76;70.14;101243.88;5009144;28;19951;-80
2023/01/14 03:44:37;;;;;;;;;;;;;;;8.74;70.05;101227.09;4996892;28;19928;-81
2023/01/14 03:47:03;;;;;;;;;;;;;;;8.74;70.29;101218.19;4998348;28;19937;-80
2023/01/14 03:49:28;;;;;;;;;;;;;;;8.74;70.06;101210.09;5000783;28;20286;-80
2023/01/14 03:52:02;;;;;;;;;;;;;;;8.75;70.07;101199.13;5007607;28;19930;-79
2023/01/14 03:54:34;;;;;;;;;;;;;;;8.73;70.15;101195.81;5006495;28;20393;-80
2023/01/14 03:57:16;;;;;;;;;;;;;;;8.74;70.04;101196.66;5007968;28;20271;-81
2023/01/14 03:59:46;;;;;;;;;;;;;;;8.73;69.93;101192.31;4998787;28;19921;-80
2023/01/14 04:02:12;;;;;;;;;;;;;;;8.73;70.02;101181.53;5007140;28;20657;-81
2023/01/14 04:04:39;;;;;;;;;;;;;;;8.72;70.23;101177.19;5006242;28;20381;-81
2023/01/14 04:07:05;;;;;;;;;;;;;;;8.71;70.09;101167.47;5004022;28;19925;-81
2023/01/14 04:09:30;;;;;;;;;;;;;;;8.70;69.97;101166.66;5010485;28;19952;-79
2023/01/14 04:11:55;;;;;;;;;;;;;;;8.70;70.19;101155.06;5004714;28;19925;-81
2023/01/14 04:17:04;;;;;;;;;;;;;;;8.69;70.04;101142.63;5001352;28;19995;-80
2023/01/14 04:19:29;;;;;;;;;;;;;;;8.68;70.04;101144.50;5004101;28;19925;-82
2023/01/14 04:21:55;;;;;;;;;;;;;;;8.69;70.13;101142.63;5005129;28;20408;-78
2023/01/14 04:24:20;;;;;;;;;;;;;;;8.68;70.16;101140.97;5008163;28;19971;-80
2023/01/14 04:26:45;;;;;;;;;;;;;;;8.69;70.06;101131.84;5005878;28;20405;-81
2023/01/14 04:29:10;;;;;;;;;;;;;;;8.68;69.90;101136.41;5018225;28;19930;-80
2023/01/14 04:31:36;;;;;;;;;;;;;;;8.69;70.00;101137.22;5014008;28;20409;-82
2023/01/14 04:34:01;;;;;;;;;;;;;;;8.69;70.02;101131.84;5006266;28;20338;-82
2023/01/14 04:36:26;;;;;;;;;;;;;;;8.68;70.02;101127.50;5009456;28;19980;-81
2023/01/14 04:38:52;;;;;;;;;;;;;;;8.66;69.87;101131.22;5000293;28;19928;-81
2023/01/14 04:44:01;;;;;;;;;;;;;;;8.66;70.14;101123.16;5012239;28;20381;-80
2023/01/14 04:46:26;;;;;;;;;;;;;;;8.66;69.89;101111.56;5014552;28;19921;-81
2023/01/14 04:48:51;;;;;;;;;;;;;;;8.64;69.93;101114.50;5007001;28;19937;-80
2023/01/14 04:51:16;;;;;;;;;;;;;;;8.64;70.15;101114.50;5003995;28;20266;-81
2023/01/14 04:53:42;;;;;;;;;;;;;;;8.63;70.02;101107.44;5011278;28;19918;-79
2023/01/14 04:56:07;;;;;;;;;;;;;;;8.63;70.24;101110.13;5013379;28;19926;-80
2023/01/14 04:58:32;;;;;;;;;;;;;;;8.64;70.07;101097.50;5012339;28;19921;-81
2023/01/14 05:00:59;;;;;;;;;;;;;;;8.62;70.10;101100.41;5008350;28;19929;-76
2023/01/14 05:03:24;;;;;;;;;;;;;;;8.62;70.08;101092.34;5009421;28;19921;-81
2023/01/14 05:05:50;;;;;;;;;;;;;;;8.61;69.92;101093.38;5004282;28;19921;-81
2023/01/14 05:08:15;;;;;;;;;;;;;;;8.61;69.98;101087.97;5000366;28;20394;-80
2023/01/14 05:10:40;;;;;;;;;;;;;;;8.60;69.98;101075.56;5010037;28;19997;-80
2023/01/14 05:13:07;;;;;;;;;;;;;;;8.61;70.07;101073.69;5009393;28;20008;-80
2023/01/14 05:15:37;;;;;;;;;;;;;;;8.61;70.18;101071.00;5010273;28;19932;-80
2023/01/14 05:18:03;;;;;;;;;;;;;;;8.59;70.06;101055.09;5004103;28;20420;-80
2023/01/14 05:20:28;;;;;;;;;;;;;;;8.59;70.00;101055.09;5010410;28;19922;-80
2023/01/14 05:22:58;;;;;;;;;;;;;;;8.57;70.16;101048.28;5002310;28;19921;-80
2023/01/14 05:25:24;;;;;;;;;;;;;;;8.57;70.16;101041.03;5009745;28;20300;-80
2023/01/14 05:27:49;;;;;;;;;;;;;;;8.56;70.18;101031.28;5009934;28;19925;-80
2023/01/14 05:30:14;;;;;;;;;;;;;;;8.55;70.05;101026.94;5007081;28;19948;-80
2023/01/14 05:32:40;;;;;;;;;;;;;;;8.56;69.96;101019.69;5011236;28;19972;-80
2023/01/14 05:35:05;;;;;;;;;;;;;;;8.56;70.29;101008.91;5011679;28;19921;-81
2023/01/14 05:37:31;;;;;;;;;;;;;;;8.56;70.21;101007.03;5010477;28;19922;-80
2023/01/14 05:39:57;;;;;;;;;;;;;;;8.56;70.26;100990.06;5007077;28;19930;-79
2023/01/14 05:47:52;;;;;;;;;;;;;;;8.53;70.15;100974.38;4994096;28;20024;-81
2023/01/14 05:50:17;;;;;;;;;;;;;;;8.53;70.12;100967.13;5001472;28;19968;-81
2023/01/14 05:52:43;;;;;;;;;;;;;;;8.53;70.17;100969.00;4997216;28;19926;-79
2023/01/14 05:55:08;;;;;;;;;;;;;;;8.52;70.07;100965.47;4995477;28;20016;-79
2023/01/14 05:57:33;;;;;;;;;;;;;;;8.52;70.05;100960.09;5007372;28;19933;-79
2023/01/14 05:59:58;;;;;;;;;;;;;;;8.53;70.29;100950.16;5006018;28;20361;-79
2023/01/14 06:07:52;;;;;;;;;;;;;;;8.49;70.12;100925.53;5005425;28;20028;-80
2023/01/14 06:10:17;;;;;;;;;;;;;;;8.50;70.20;100929.06;4997764;28;20020;-81
2023/01/14 06:12:58;;;;;;;;;;;;;;;8.49;70.20;100916.63;5001397;28;20007;-81
2023/01/14 06:15:32;;;;;;;;;;;;;;;8.49;70.40;100917.44;5007040;28;20407;-81
2023/01/14 06:18:08;;;;;;;;;;;;;;;8.48;70.04;100906.91;4994581;28;19922;-80
2023/01/14 06:20:34;;;;;;;;;;;;;;;8.49;70.21;100895.09;5000792;28;20028;-80
2023/01/14 06:22:59;;;;;;;;;;;;;;;8.49;70.26;100885.13;5010072;28;20008;-79
2023/01/14 06:25:24;;;;;;;;;;;;;;;8.49;70.22;100884.31;5012830;28;19940;-78
2023/01/14 06:27:50;;;;;;;;;;;;;;;8.48;70.17;100871.91;5005827;28;19928;-79
2023/01/14 06:30:15;;;;;;;;;;;;;;;8.48;70.30;100872.75;4993221;28;19932;-76
2023/01/14 06:32:40;;;;;;;;;;;;;;;8.48;70.32;100859.28;4997833;28;19925;-78
2023/01/14 06:35:06;;;;;;;;;;;;;;;8.47;70.16;100862.19;5007117;28;19926;-77
2023/01/14 06:37:31;;;;;;;;;;;;;;;8.48;70.21;100861.16;5002883;28;20008;-78
2023/01/14 06:39:56;;;;;;;;;;;;;;;8.46;70.29;100845.22;4994926;28;19926;-78
2023/01/14 06:42:21;;;;;;;;;;;;;;;8.47;70.21;100833.41;4998902;28;20374;-79
2023/01/14 06:44:47;;;;;;;;;;;;;;;8.47;70.50;100833.41;4994357;28;19926;-79
2023/01/14 06:47:12;;;;;;;;;;;;;;;8.46;70.31;100831.75;5002824;28;20021;-78
2023/01/14 06:49:37;;;;;;;;;;;;;;;8.46;70.33;100823.69;5008474;28;19926;-78
2023/01/14 06:52:02;;;;;;;;;;;;;;;8.46;70.55;100810.22;5000652;28;19926;-78
2023/01/14 06:54:28;;;;;;;;;;;;;;;8.45;70.44;100804.03;4998083;28;20512;-80
2023/01/14 06:56:53;;;;;;;;;;;;;;;8.45;70.28;100800.50;4997125;28;20057;-79
2023/01/14 06:59:18;;;;;;;;;;;;;;;8.44;70.62;100797.00;5004055;28;19976;-81
2023/01/14 07:01:43;;;;;;;;;;;;;;;8.46;70.22;100791.38;5000026;28;19929;-80
2023/01/14 07:04:09;;;;;;;;;;;;;;;8.46;70.37;100786.00;4993252;28;19933;-78
2023/01/14 07:06:34;;;;;;;;;;;;;;;8.45;70.39;100782.47;5000911;28;19926;-80
2023/01/14 07:08:59;;;;;;;;;;;;;;;8.45;70.25;100763.63;4998731;28;19925;-81
2023/01/14 07:11:24;;;;;;;;;;;;;;;8.45;70.31;100763.63;5011662;28;20016;-80
2023/01/14 07:13:50;;;;;;;;;;;;;;;8.46;70.44;100756.38;5007938;28;20408;-79
2023/01/14 07:16:15;;;;;;;;;;;;;;;8.45;70.42;100750.19;5004491;28;19921;-80
2023/01/14 07:18:40;;;;;;;;;;;;;;;8.46;70.62;100742.91;5006865;28;19929;-80
2023/01/14 07:21:05;;;;;;;;;;;;;;;8.46;70.53;100740.22;5008294;28;20039;-79
2023/01/14 07:23:31;;;;;;;;;;;;;;;8.45;70.39;100742.09;4994133;28;19921;-80
2023/01/14 07:25:56;;;;;;;;;;;;;;;8.45;70.37;100725.13;4998686;28;19937;-80
2023/01/14 07:28:22;;;;;;;;;;;;;;;8.45;70.71;100728.66;4996714;28;20289;-81
2023/01/14 07:30:48;;;;;;;;;;;;;;;8.45;70.65;100717.88;5012183;28;20008;-82
2023/01/14 07:33:13;;;;;;;;;;;;;;;8.45;70.47;100715.19;5001063;28;20450;-77
2023/01/14 07:35:38;;;;;;;;;;;;;;;8.44;70.42;100700.09;4993658;28;19925;-81
2023/01/14 07:38:04;;;;;;;;;;;;;;;8.45;70.53;100695.53;4994876;28;19937;-81
2023/01/14 07:40:29;;;;;;;;;;;;;;;8.44;70.64;100678.56;5000490;28;20374;-83
2023/01/14 07:42:58;;;;;;;;;;;;;;;8.44;70.75;100677.72;4999861;28;19933;-83
2023/01/14 07:45:23;;;;;;;;;;;;;;;8.44;70.49;100661.56;4998338;28;19975;-81
2023/01/14 07:47:48;;;;;;;;;;;;;;;8.43;70.65;100649.19;4999321;28;20331;-81
2023/01/14 07:50:14;;;;;;;;;;;;;;;8.44;70.53;100632.81;5010068;28;19933;-78
2023/01/14 07:52:39;;;;;;;;;;;;;;;8.44;70.78;100624.72;5008278;28;19928;-80
2023/01/14 07:55:05;;;;;;;;;;;;;;;8.44;70.83;100615.81;4998662;28;19940;-81
2023/01/14 07:57:30;;;;;;;;;;;;;;;8.44;70.56;100611.28;5004586;28;20017;-81
2023/01/14 07:59:55;;;;;;;;;;;;;;;8.44;70.57;100602.34;5008235;28;19945;-81
2023/01/14 08:02:20;;;;;;;;;;;;;;;8.44;70.72;100603.19;5001181;28;20020;-80
2023/01/14 08:04:46;;;;;;;;;;;;;;;8.45;70.62;100587.84;5012326;28;19972;-82
2023/01/14 08:07:11;;;;;;;;;;;;;;;8.45;70.58;100582.47;5011083;28;19976;-81
2023/01/14 08:09:36;;;;;;;;;;;;;;;8.44;70.48;100573.59;5005970;28;20068;-81
2023/01/14 08:12:01;;;;;;;;;;;;;;;8.46;70.54;100562.56;5012620;28;19926;-81
2023/01/14 08:14:27;;;;;;;;;;;;;;;8.46;70.54;100559.88;5010931;28;19972;-82
2023/01/14 08:16:52;;;;;;;;;;;;;;;8.45;70.48;100553.69;5006523;28;19926;-82
2023/01/14 08:19:18;;;;;;;;;;;;;;;8.47;70.54;100548.06;5007335;28;20350;-77
2023/01/14 08:21:44;;;;;;;;;;;;;;;8.48;70.59;100543.50;5009050;28;20033;-82
2023/01/14 08:24:09;;;;;;;;;;;;;;;8.47;70.78;100521.16;4999301;28;19933;-84
2023/01/14 08:26:34;;;;;;;;;;;;;;;8.47;70.56;100526.53;5003305;28;20021;-83
2023/01/14 08:28:59;;;;;;;;;;;;;;;8.48;70.89;100498.56;5014761;28;20285;-82
2023/01/14 08:31:24;;;;;;;;;;;;;;;8.46;70.76;100497.97;5011248;28;19984;-83
2023/01/14 08:33:50;;;;;;;;;;;;;;;8.47;70.50;100496.94;5008273;28;19929;-81
2023/01/14 08:36:16;;;;;;;;;;;;;;;8.48;70.70;100490.47;5008521;28;20352;-82
2023/01/14 08:38:46;;;;;;;;;;;;;;;8.47;70.64;100480.78;5008978;28;19921;-83
2023/01/14 08:41:13;;;;;;;;;;;;;;;8.49;70.64;100486.72;5002740;28;19928;-83
2023/01/14 08:43:40;;;;;;;;;;;;;;;8.48;70.82;100468.94;4994991;28;19929;-82
2023/01/14 08:46:07;;;;;;;;;;;;;;;8.49;70.76;100467.88;5005753;28;19933;-82
2023/01/14 08:48:32;;;;;;;;;;;;;;;8.49;70.77;100454.41;5020287;28;19936;-83
2023/01/14 08:51:01;;;;;;;;;;;;;;;8.50;70.78;100444.50;5002385;28;19926;-84
2023/01/14 08:53:29;;;;;;;;;;;;;;;8.50;70.58;100441.81;5017565;28;20333;-84
2023/01/14 08:55:55;;;;;;;;;;;;;;;8.50;70.97;100441.81;4995619;28;19933;-85
2023/01/14 08:58:21;;;;;;;;;;;;;;;8.50;70.99;100425.66;5001022;28;19929;-78
2023/01/14 09:00:46;;;;;;;;;;;;;;;8.50;70.82;100434.53;5004439;28;19921;-85
2023/01/14 09:03:11;;;;;;;;;;;;;;;8.51;70.95;100422.72;4998790;28;19926;-86
2023/01/14 09:05:37;;;;;;;;;;;;;;;8.52;70.82;100421.66;5004000;28;19947;-86
2023/01/14 09:19:00;;;;;;;;;;;;;;;8.52;70.85;100358.94;5001112;28;19945;-86
2023/01/14 09:21:25;;;;;;;;;;;;;;;8.53;70.93;100349.78;5005724;28;20358;-80
2023/01/14 09:23:50;;;;;;;;;;;;;;;8.54;70.84;100351.41;5006322;28;19980;-85
2023/01/14 09:26:16;;;;;;;;;;;;;;;8.53;70.87;100334.47;5002746;28;19930;-80
2023/01/14 09:28:41;;;;;;;;;;;;;;;8.54;70.87;100341.50;5000114;28;19922;-85
2023/01/14 09:31:06;;;;;;;;;;;;;;;8.55;70.91;100326.97;5008358;28;19922;-85
2023/01/14 09:33:31;;;;;;;;;;;;;;;8.55;71.10;100331.53;5001514;28;19972;-87
2023/01/14 09:35:59;;;;;;;;;;;;;;;8.56;70.83;100325.09;5001765;28;19929;-84
2023/01/14 09:38:24;;;;;;;;;;;;;;;8.54;71.15;100322.66;5004696;28;19922;-80
2023/01/14 09:40:49;;;;;;;;;;;;;;;8.56;70.88;100309.75;5004671;28;19928;-85
2023/01/14 09:43:16;;;;;;;;;;;;;;;8.56;71.01;100315.13;5006918;28;20348;-81
2023/01/14 09:45:42;;;;;;;;;;;;;;;8.56;70.98;100300.84;5005889;28;20396;-85
2023/01/14 09:48:16;;;;;;;;;;;;;;;8.57;70.88;100313.28;4997168;28;19926;-86
2023/01/14 09:50:44;;;;;;;;;;;;;;;8.57;70.97;100305.19;4999356;28;20406;-84
2023/01/14 09:53:25;;;;;;;;;;;;;;;8.58;71.08;100307.63;5014002;28;19940;-85
2023/01/14 09:55:51;;;;;;;;;;;;;;;8.57;70.96;100276.41;5010136;28;19922;-85
2023/01/14 09:58:23;;;;;;;;;;;;;;;8.58;71.05;100261.88;5009284;28;19918;-88
2023/01/14 10:00:55;;;;;;;;;;;;;;;8.58;71.19;100251.09;5012715;28;20464;-85
2023/01/14 10:03:26;;;;;;;;;;;;;;;8.58;71.17;100248.41;5007976;28;20009;-85
2023/01/14 10:05:54;;;;;;;;;;;;;;;8.57;70.99;100244.09;5004351;28;20011;-85
2023/01/14 10:08:20;;;;;;;;;;;;;;;8.56;71.05;100242.44;5006446;28;19921;-86
2023/01/14 10:10:46;;;;;;;;;;;;;;;8.58;70.95;100243.03;5003433;28;19949;-83
2023/01/14 10:13:14;;;;;;;;;;;;;;;8.58;70.96;100245.72;5008840;28;20397;-84
2023/01/14 10:15:40;;;;;;;;;;;;;;;8.59;71.20;100233.06;5005497;28;19921;-84
2023/01/14 10:18:16;;;;;;;;;;;;;;;8.59;71.35;100217.75;5001916;28;20366;-84
2023/01/14 10:20:52;;;;;;;;;;;;;;;8.61;71.34;100223.69;4999909;28;20030;-85
2023/01/14 10:23:28;;;;;;;;;;;;;;;8.61;71.25;100199.47;5006675;28;20382;-85
2023/01/14 10:25:55;;;;;;;;;;;;;;;8.63;71.29;100194.66;5010712;28;19929;-81
2023/01/14 10:28:22;;;;;;;;;;;;;;;8.64;71.58;100180.16;5001802;28;20277;-86
2023/01/14 10:30:48;;;;;;;;;;;;;;;8.65;71.14;100178.28;5004175;28;19922;-85
2023/01/14 10:33:14;;;;;;;;;;;;;;;8.66;71.43;100179.88;4999626;28;19962;-87
2023/01/14 10:35:44;;;;;;;;;;;;;;;8.67;71.41;100173.47;5010948;28;19921;-87
2023/01/14 10:38:14;;;;;;;;;;;;;;;8.68;71.50;100147.34;5010065;28;20378;-87
2023/01/14 10:40:39;;;;;;;;;;;;;;;8.69;71.72;100136.31;5010107;28;19918;-86
2023/01/14 10:43:05;;;;;;;;;;;;;;;8.69;71.77;100130.94;4995307;28;20263;-87
2023/01/14 10:45:30;;;;;;;;;;;;;;;8.70;71.84;100126.38;5017023;28;19921;-86
2023/01/14 10:48:02;;;;;;;;;;;;;;;8.70;71.97;100124.50;5023036;28;19921;-87
2023/01/14 10:50:27;;;;;;;;;;;;;;;8.72;71.80;100108.09;5003899;28;19925;-87
2023/01/14 10:52:53;;;;;;;;;;;;;;;8.73;71.95;100107.03;5006628;28;19944;-86
2023/01/14 10:55:24;;;;;;;;;;;;;;;8.74;72.01;100106.78;5012209;28;19917;-87
2023/01/14 10:57:55;;;;;;;;;;;;;;;8.75;72.02;100091.47;5018107;28;19922;-84
2023/01/14 11:00:23;;;;;;;;;;;;;;;8.76;72.20;100093.06;5002725;28;19918;-83
2023/01/14 11:02:49;;;;;;;;;;;;;;;8.77;72.16;100089.31;5015810;28;19921;-86
2023/01/14 11:05:23;;;;;;;;;;;;;;;8.79;72.24;100076.41;5013241;28;20438;-85
2023/01/14 11:07:50;;;;;;;;;;;;;;;8.78;72.11;100072.91;5003422;28;19921;-85
2023/01/14 11:10:22;;;;;;;;;;;;;;;8.80;72.32;100072.69;5010543;28;19948;-85
2023/01/14 11:12:48;;;;;;;;;;;;;;;8.81;72.33;100042.78;5010094;28;19929;-84
2023/01/14 11:15:45;;;;;;;;;;;;;;;8.84;72.72;100038.78;5013199;28;19918;-87
2023/01/14 11:18:23;;;;;;;;;;;;;;;8.85;72.58;100037.75;5000970;28;19925;-83
2023/01/14 11:20:51;;;;;;;;;;;;;;;8.87;72.76;100028.34;5025038;28;19964;-80
2023/01/14 11:23:25;;;;;;;;;;;;;;;8.87;72.72;100022.16;5011154;28;19921;-86
2023/01/14 11:25:51;;;;;;;;;;;;;;;8.89;72.90;100025.41;5011024;28;19921;-85
2023/01/14 11:28:16;;;;;;;;;;;;;;;8.88;73.08;100035.34;5009698;28;19933;-81
2023/01/14 11:30:43;;;;;;;;;;;;;;;8.89;73.02;100003.84;5012443;28;20005;-84
2023/01/14 11:33:16;;;;;;;;;;;;;;;8.92;73.33;100008.75;5011320;28;19929;-88
2023/01/14 11:35:48;;;;;;;;;;;;;;;8.92;73.26;100010.63;5008063;28;19917;-82
2023/01/14 11:38:15;;;;;;;;;;;;;;;8.93;73.27;100004.19;5010120;28;19925;-87
2023/01/14 11:43:25;;;;;;;;;;;;;;;8.93;73.53;99990.72;5021474;28;19933;-90
2023/01/14 11:46:03;;;;;;;;;;;;;;;8.95;73.93;99986.69;5009757;28;19925;-79
2023/01/14 11:48:29;;;;;;;;;;;;;;;8.96;73.62;99974.84;5009832;28;20028;-86
2023/01/14 11:50:58;;;;;;;;;;;;;;;8.97;73.51;99970.28;5008174;28;20346;-89
2023/01/14 11:53:26;;;;;;;;;;;;;;;8.98;73.54;99969.22;5007352;28;19922;-87
2023/01/14 11:55:54;;;;;;;;;;;;;;;9.00;73.50;99957.13;5004653;28;20385;-87
2023/01/14 11:58:21;;;;;;;;;;;;;;;9.03;73.68;99956.63;5006630;28;19925;-87
2023/01/14 12:00:50;;;;;;;;;;;;;;;9.05;73.35;99949.13;5008935;28;20380;-86
2023/01/14 12:03:25;;;;;;;;;;;;;;;9.06;73.34;99939.94;5005360;28;19929;-87
2023/01/14 12:05:52;;;;;;;;;;;;;;;9.08;73.34;99932.44;5010105;28;20235;-85
2023/01/14 12:08:20;;;;;;;;;;;;;;;9.09;73.32;99919.78;5016665;28;19988;-83
2023/01/14 12:10:47;;;;;;;;;;;;;;;9.10;73.39;99900.69;5011156;28;19968;-87
2023/01/14 12:19:19;;;;;;;;;;;;;;;9.15;73.51;99886.44;5009891;28;19928;-82
2023/01/14 12:21:49;;;;;;;;;;;;;;;9.16;73.50;99882.66;5005681;28;19921;-88
2023/01/14 12:24:20;;;;;;;;;;;;;;;9.17;73.44;99864.63;5006897;28;20369;-86
2023/01/14 12:26:47;;;;;;;;;;;;;;;9.18;73.47;99850.91;5004328;28;19984;-90
2023/01/14 12:29:26;;;;;;;;;;;;;;;9.20;73.46;99847.97;5004237;28;19933;-87
2023/01/14 12:32:02;;;;;;;;;;;;;;;9.21;73.63;99849.59;5008063;28;19945;-90
2023/01/14 12:34:40;;;;;;;;;;;;;;;9.22;73.63;99833.16;5003108;28;19921;-88
2023/01/14 12:37:08;;;;;;;;;;;;;;;9.24;73.61;99828.31;5004964;28;19992;-84
2023/01/14 12:47:53;;;;;;;;;;;;;;;9.29;73.39;99809.50;5006150;28;19936;-82
2023/01/14 12:50:19;;;;;;;;;;;;;;;9.31;73.28;99806.56;5009960;28;19918;-87
2023/01/14 12:52:51;;;;;;;;;;;;;;;9.32;73.61;99800.06;5011561;28;19937;-84
2023/01/14 12:55:35;;;;;;;;;;;;;;;9.34;73.42;99791.75;5010699;28;20626;-88
2023/01/14 12:58:03;;;;;;;;;;;;;;;9.35;73.57;99775.34;5007101;28;19930;-87
2023/01/14 13:00:33;;;;;;;;;;;;;;;9.37;73.62;99781.25;5011810;28;19917;-88
2023/01/14 13:03:04;;;;;;;;;;;;;;;9.38;73.79;99764.03;5006124;28;19921;-86
2023/01/14 13:05:31;;;;;;;;;;;;;;;9.40;73.69;99769.97;5010515;28;20702;-87
2023/01/14 13:08:01;;;;;;;;;;;;;;;9.42;73.77;99761.63;5008003;28;20381;-85
2023/01/14 13:10:30;;;;;;;;;;;;;;;9.44;73.56;99754.09;5010353;28;19922;-87
2023/01/14 13:12:56;;;;;;;;;;;;;;;9.44;73.59;99752.19;5010021;28;20258;-88
2023/01/14 13:15:26;;;;;;;;;;;;;;;9.46;73.76;99746.56;5011659;28;19929;-86
2023/01/14 13:17:56;;;;;;;;;;;;;;;9.46;74.15;99736.59;5009782;28;19921;-80
2023/01/14 13:20:42;;;;;;;;;;;;;;;9.48;74.07;99731.75;5005587;28;20498;-88
2023/01/14 13:23:08;;;;;;;;;;;;;;;9.49;73.88;99733.38;5009881;28;19928;-88
2023/01/14 13:25:37;;;;;;;;;;;;;;;9.49;74.26;99725.28;5008841;28;19918;-89
2023/01/14 13:28:12;;;;;;;;;;;;;;;9.52;74.10;99715.84;5003103;28;19929;-89
2023/01/14 13:30:43;;;;;;;;;;;;;;;9.53;74.09;99710.22;5008834;28;19917;-89
2023/01/14 13:33:16;;;;;;;;;;;;;;;9.56;74.13;99708.88;5008842;28;20297;-83
2023/01/14 13:35:42;;;;;;;;;;;;;;;9.56;74.29;99706.19;5004003;28;20016;-86
2023/01/14 13:38:19;;;;;;;;;;;;;;;9.58;74.09;99704.03;5009512;28;20056;-88
2023/01/14 13:40:52;;;;;;;;;;;;;;;9.60;74.16;99701.06;5003483;28;20293;-88